createdAt,value
2023-03-27T00:02:07.752Z,98024.25
2023-03-27T00:04:36.403Z,98022.11
2023-03-27T00:07:02.980Z,98020.90
2023-03-27T00:09:31.687Z,98019.05
2023-03-27T00:12:01.828Z,98017.30
2023-03-27T00:14:32.812Z,98016.21
2023-03-27T00:16:59.799Z,98018.29
2023-03-27T00:19:44.519Z,98022.73
2023-03-27T00:22:16.437Z,98020.30
2023-03-27T00:24:43.323Z,98019.76
2023-03-27T00:27:12.183Z,98021.40
2023-03-27T00:29:39.415Z,98018.08
2023-03-27T00:32:06.712Z,98017.30
2023-03-27T00:34:33.563Z,98017.46
2023-03-27T00:37:01.015Z,98016.83
2023-03-27T00:39:28.085Z,98020.20
2023-03-27T00:41:55.672Z,98022.06
2023-03-27T00:44:30.516Z,98018.16
2023-03-27T00:46:57.351Z,98019.85
2023-03-27T00:49:26.795Z,98021.75
2023-03-27T00:51:53.568Z,98018.20
2023-03-27T00:54:25.904Z,98021.90
2023-03-27T00:56:55.003Z,98022.64
2023-03-27T00:59:23.819Z,98024.49
2023-03-27T01:01:51.084Z,98024.93
2023-03-27T01:04:20.861Z,98020.70
2023-03-27T01:06:49.760Z,98020.02
2023-03-27T01:09:20.138Z,98019.39
2023-03-27T01:12:05.949Z,98023.89
2023-03-27T01:15:00.848Z,98040.06
2023-03-27T01:17:52.545Z,98035.87
2023-03-27T01:20:50.046Z,98033.91
2023-03-27T01:23:59.518Z,98031.40
2023-03-27T01:26:48.235Z,98030.91
2023-03-27T01:29:18.738Z,98030.34
2023-03-27T01:32:01.569Z,98025.48
2023-03-27T01:34:33.023Z,98022.00
2023-03-27T01:37:11.555Z,98020.61
2023-03-27T01:39:45.398Z,98025.83
2023-03-27T01:42:35.040Z,98024.44
2023-03-27T01:45:11.590Z,98021.44
2023-03-27T01:47:45.935Z,98023.68
2023-03-27T01:50:28.212Z,98020.55
2023-03-27T01:53:01.641Z,98018.24
2023-03-27T01:55:35.375Z,98012.28
2023-03-27T01:58:14.245Z,98011.89
2023-03-27T02:00:50.879Z,98007.57
2023-03-27T02:03:28.909Z,98011.07
2023-03-27T02:05:58.338Z,98009.73
2023-03-27T02:08:41.539Z,98013.91
2023-03-27T02:11:14.898Z,98014.75
2023-03-27T02:13:54.431Z,98023.88
2023-03-27T02:16:24.294Z,98020.44
2023-03-27T02:18:56.125Z,98022.70
2023-03-27T02:21:23.101Z,98027.65
2023-03-27T02:23:50.554Z,98030.61
2023-03-27T02:26:17.411Z,98033.58
2023-03-27T02:29:21.248Z,98036.66
2023-03-27T02:31:48.973Z,98039.28
2023-03-27T02:34:24.634Z,98034.98
2023-03-27T02:36:54.525Z,98036.27
2023-03-27T02:39:23.576Z,98040.10
2023-03-27T02:42:10.024Z,98043.54
2023-03-27T02:44:50.993Z,98049.23
2023-03-27T02:47:33.102Z,98050.64
2023-03-27T02:50:05.986Z,98057.45
2023-03-27T02:52:46.251Z,98059.55
2023-03-27T02:55:48.616Z,98065.09
2023-03-27T02:58:20.044Z,98073.30
2023-03-27T03:00:55.746Z,98081.72
2023-03-27T03:04:13.241Z,98084.11
2023-03-27T03:07:05.851Z,98084.30
2023-03-27T03:09:33.549Z,98089.86
2023-03-27T03:12:07.886Z,98086.23
2023-03-27T03:14:40.549Z,98085.86
2023-03-27T03:17:07.286Z,98088.80
2023-03-27T03:19:34.126Z,98087.31
2023-03-27T03:22:01.287Z,98091.20
2023-03-27T03:24:29.154Z,98088.48
2023-03-27T03:26:57.124Z,98089.44
2023-03-27T03:29:29.585Z,98087.07
2023-03-27T03:32:07.611Z,98089.16
2023-03-27T03:34:36.192Z,98085.57
2023-03-27T03:37:03.053Z,98086.30
2023-03-27T03:39:31.085Z,98086.23
2023-03-27T03:41:57.927Z,98085.02
2023-03-27T03:44:24.663Z,98084.69
2023-03-27T03:46:53.606Z,98085.70
2023-03-27T03:49:21.449Z,98090.13
2023-03-27T03:52:03.109Z,98087.57
2023-03-27T03:54:33.539Z,98090.13
2023-03-27T03:57:00.551Z,98094.09
2023-03-27T03:59:28.139Z,98091.70
2023-03-27T04:02:28.090Z,98094.38
2023-03-27T04:04:59.328Z,98099.45
2023-03-27T04:07:31.105Z,98102.45
2023-03-27T04:10:15.002Z,98099.55
2023-03-27T04:12:47.068Z,98099.70
2023-03-27T04:15:18.723Z,98104.40
2023-03-27T04:18:07.640Z,98105.31
2023-03-27T04:20:36.771Z,98111.10
2023-03-27T04:23:05.153Z,98114.70
2023-03-27T04:25:35.954Z,98111.52
2023-03-27T04:28:02.749Z,98113.75
2023-03-27T04:30:34.178Z,98114.86
2023-03-27T04:33:17.918Z,98107.88
2023-03-27T04:36:07.862Z,98109.92
2023-03-27T04:38:47.680Z,98109.52
2023-03-27T04:41:17.051Z,98112.03
2023-03-27T04:43:45.690Z,98108.40
2023-03-27T04:46:12.596Z,98106.68
2023-03-27T04:48:41.956Z,98107.87
2023-03-27T04:51:21.015Z,98107.91
2023-03-27T04:53:52.310Z,98103.08
2023-03-27T04:56:19.466Z,98104.39
2023-03-27T04:58:47.073Z,98106.85
2023-03-27T05:01:16.752Z,98108.11
2023-03-27T05:04:02.307Z,98109.08
2023-03-27T05:06:47.060Z,98112.50
2023-03-27T05:09:16.642Z,98113.90
2023-03-27T05:11:44.304Z,98117.79
2023-03-27T05:14:11.861Z,98121.08
2023-03-27T05:16:42.003Z,98120.63
2023-03-27T05:19:10.743Z,98122.80
2023-03-27T05:21:41.374Z,98120.09
2023-03-27T05:24:35.412Z,98118.98
2023-03-27T05:27:04.661Z,98125.02
2023-03-27T05:29:46.395Z,98126.70
2023-03-27T05:32:15.033Z,98130.02
2023-03-27T05:34:54.162Z,98131.94
2023-03-27T05:37:21.577Z,98134.96
2023-03-27T05:40:09.269Z,98128.55
2023-03-27T05:42:42.193Z,98128.27
2023-03-27T05:45:09.788Z,98127.34
2023-03-27T05:47:51.405Z,98124.91
2023-03-27T05:50:19.479Z,98127.88
2023-03-27T05:52:47.003Z,98129.49
2023-03-27T05:55:14.653Z,98126.73
2023-03-27T05:57:41.513Z,98129.61
2023-03-27T06:00:13.321Z,98128.95
2023-03-27T06:02:43.370Z,98128.80
2023-03-27T06:05:15.425Z,98133.83
2023-03-27T06:07:47.831Z,98134.39
2023-03-27T06:10:17.329Z,98133.79
2023-03-27T06:13:01.167Z,98135.61
2023-03-27T06:15:34.211Z,98132.34
2023-03-27T06:18:24.545Z,98134.46
2023-03-27T06:20:51.386Z,98133.52
2023-03-27T06:23:18.748Z,98132.09
2023-03-27T06:25:47.046Z,98133.26
2023-03-27T06:28:15.600Z,98125.37
2023-03-27T06:30:47.293Z,98126.75
2023-03-27T06:33:48.322Z,98129.70
2023-03-27T06:36:34.303Z,98129.38
2023-03-27T06:39:08.491Z,98132.14
2023-03-27T06:41:35.848Z,98130.48
2023-03-27T06:44:05.326Z,98131.71
2023-03-27T06:47:00.354Z,98129.27
2023-03-27T06:49:37.802Z,98126.13
2023-03-27T06:52:13.863Z,98126.95
2023-03-27T06:54:44.164Z,98128.97
2023-03-27T06:57:11.947Z,98125.92
2023-03-27T07:00:12.544Z,98132.23
2023-03-27T07:02:58.504Z,98134.42
2023-03-27T07:05:45.841Z,98136.17
2023-03-27T07:08:23.196Z,98133.98
2023-03-27T07:11:09.961Z,98135.19
2023-03-27T07:13:41.816Z,98128.77
2023-03-27T07:16:13.928Z,98122.09
2023-03-27T07:18:41.449Z,98124.42
2023-03-27T07:21:09.242Z,98121.48
2023-03-27T07:23:36.892Z,98124.47
2023-03-27T07:26:11.245Z,98129.43
2023-03-27T07:29:17.133Z,98129.81
2023-03-27T07:34:19.100Z,98134.65
2023-03-27T07:37:09.012Z,98129.69
2023-03-27T07:39:36.353Z,98133.09
2023-03-27T07:42:04.310Z,98139.80
2023-03-27T07:44:47.160Z,98138.96
2023-03-27T07:47:14.488Z,98137.93
2023-03-27T07:49:42.657Z,98140.77
2023-03-27T07:52:13.779Z,98139.25
2023-03-27T07:54:49.271Z,98139.23
2023-03-27T07:57:17.887Z,98137.64
2023-03-27T08:00:02.106Z,98136.88
2023-03-27T08:02:45.288Z,98138.29
2023-03-27T08:05:13.570Z,98140.19
2023-03-27T08:07:44.967Z,98137.43
2023-03-27T08:10:13.727Z,98135.04
2023-03-27T08:12:53.289Z,98137.11
2023-03-27T08:15:20.498Z,98132.59
2023-03-27T08:17:53.241Z,98135.79
2023-03-27T08:20:23.297Z,98130.40
2023-03-27T08:22:52.012Z,98135.07
2023-03-27T08:25:41.893Z,98134.92
2023-03-27T08:28:09.028Z,98135.88
2023-03-27T08:30:36.706Z,98131.68
2023-03-27T08:33:04.392Z,98135.39
2023-03-27T08:35:33.186Z,98139.66
2023-03-27T08:38:00.850Z,98135.63
2023-03-27T08:40:33.484Z,98128.39
2023-03-27T08:43:25.701Z,98129.50
2023-03-27T08:46:14.695Z,98127.58
2023-03-27T08:48:48.129Z,98128.89
2023-03-27T08:51:23.138Z,98134.35
2023-03-27T08:53:54.119Z,98129.85
2023-03-27T08:56:24.526Z,98127.41
2023-03-27T08:58:53.189Z,98127.31
2023-03-27T09:01:29.904Z,98119.20
2023-03-27T09:04:05.010Z,98117.33
2023-03-27T09:06:44.500Z,98114.89
2023-03-27T09:09:39.750Z,98111.43
2023-03-27T09:12:18.342Z,98112.70
2023-03-27T09:14:50.863Z,98112.25
2023-03-27T09:17:25.960Z,98107.52
2023-03-27T09:19:59.932Z,98112.88
2023-03-27T09:22:29.683Z,98108.70
2023-03-27T09:25:23.628Z,98107.47
2023-03-27T09:28:35.493Z,98109.58
2023-03-27T09:31:32.168Z,98100.48
2023-03-27T09:34:02.243Z,98112.44
2023-03-27T09:36:29.393Z,98111.65
2023-03-27T09:39:05.092Z,98106.23
2023-03-27T09:41:40.753Z,98102.52
2023-03-27T09:44:44.142Z,98102.61
2023-03-27T09:47:24.486Z,98104.22
2023-03-27T09:50:15.951Z,98096.50
2023-03-27T09:52:54.648Z,98097.17
2023-03-27T09:55:35.234Z,98094.05
2023-03-27T09:58:27.887Z,98103.44
2023-03-27T10:01:25.788Z,98096.70
2023-03-27T10:03:56.164Z,98088.02
2023-03-27T10:06:38.318Z,98092.93
2023-03-27T10:09:26.946Z,98089.92
2023-03-27T10:12:07.407Z,98086.80
2023-03-27T10:14:41.764Z,98093.96
2023-03-27T10:17:36.957Z,98092.33
2023-03-27T10:20:16.898Z,98090.48
2023-03-27T10:22:54.861Z,98091.25
2023-03-27T10:25:38.418Z,98096.00
2023-03-27T10:28:22.072Z,98093.34
2023-03-27T10:31:24.100Z,98085.91
2023-03-27T10:34:05.473Z,98098.37
2023-03-27T10:37:31.225Z,98089.44
2023-03-27T10:40:36.411Z,98086.90
2023-03-27T10:43:36.766Z,98095.11
2023-03-27T10:46:09.722Z,98096.08
2023-03-27T10:49:20.218Z,98087.86
2023-03-27T10:52:06.126Z,98083.34
2023-03-27T10:55:01.951Z,98087.51
2023-03-27T10:57:30.500Z,98083.35
2023-03-27T11:00:00.295Z,98080.25
2023-03-27T11:02:54.725Z,98079.56
2023-03-27T11:05:42.679Z,98072.15
2023-03-27T11:08:41.918Z,98072.04
2023-03-27T11:11:36.228Z,98066.75
2023-03-27T11:14:06.450Z,98058.14
2023-03-27T11:16:53.471Z,98060.52
2023-03-27T11:19:39.509Z,98062.74
2023-03-27T11:22:46.651Z,98063.13
2023-03-27T11:25:40.540Z,98058.69
2023-03-27T11:28:52.799Z,98057.16
2023-03-27T11:31:39.543Z,98064.16
2023-03-27T11:34:32.006Z,98059.09
2023-03-27T11:37:23.188Z,98058.24
2023-03-27T11:39:52.601Z,98062.77
2023-03-27T11:42:24.172Z,98061.04
2023-03-27T11:44:51.828Z,98061.35
2023-03-27T11:47:55.301Z,98053.59
2023-03-27T11:50:24.966Z,98052.65
2023-03-27T11:53:16.497Z,98053.58
2023-03-27T11:56:29.652Z,98053.88
2023-03-27T11:59:15.798Z,98050.99
2023-03-27T12:01:52.116Z,98045.37
2023-03-27T12:04:28.564Z,98044.47
2023-03-27T12:07:33.988Z,98037.16
2023-03-27T12:10:29.519Z,98028.46
2023-03-27T12:13:17.975Z,98023.88
2023-03-27T12:16:06.651Z,98026.29
2023-03-27T12:19:10.761Z,98031.06
2023-03-27T12:21:55.997Z,98033.70
2023-03-27T12:25:01.931Z,98034.28
2023-03-27T12:27:53.047Z,98034.29
2023-03-27T12:30:47.132Z,98035.77
2023-03-27T12:33:25.860Z,98029.23
2023-03-27T12:35:54.345Z,98026.81
2023-03-27T12:38:27.202Z,98029.77
2023-03-27T12:41:03.312Z,98028.31
2023-03-27T12:43:45.000Z,98027.14
2023-03-27T12:46:23.523Z,98021.66
2023-03-27T12:48:53.837Z,98021.13
2023-03-27T12:51:47.774Z,98017.74
2023-03-27T12:54:34.935Z,98017.16
2023-03-27T12:57:22.353Z,98008.80
2023-03-27T12:59:59.748Z,98012.66
2023-03-27T13:02:45.707Z,98009.27
2023-03-27T13:05:40.883Z,98011.02
2023-03-27T13:08:24.377Z,98002.79
2023-03-27T13:11:23.073Z,98002.70
2023-03-27T13:14:09.523Z,98007.61
2023-03-27T13:17:12.661Z,98002.77
2023-03-27T13:19:52.159Z,98001.30
2023-03-27T13:22:42.539Z,97996.00
2023-03-27T13:25:22.903Z,97992.42
2023-03-27T13:28:12.278Z,97995.45
2023-03-27T13:30:49.176Z,97991.98
2023-03-27T13:33:46.980Z,97984.77
2023-03-27T13:36:25.899Z,97983.92
2023-03-27T13:38:53.080Z,97985.84
2023-03-27T13:41:42.841Z,97983.13
2023-03-27T13:44:57.519Z,97978.88
2023-03-27T13:47:33.717Z,97976.59
2023-03-27T13:50:06.730Z,97974.85
2023-03-27T13:53:15.774Z,97974.41
2023-03-27T13:56:20.324Z,97975.63
2023-03-27T13:59:51.299Z,97968.36
2023-03-27T14:02:36.760Z,97967.56
2023-03-27T14:05:28.216Z,97964.75
2023-03-27T14:12:53.425Z,97954.38
2023-03-27T14:15:34.051Z,97950.52
2023-03-27T14:18:22.948Z,97950.94
2023-03-27T14:20:52.884Z,97955.08
2023-03-27T14:23:21.428Z,97953.44
2023-03-27T14:26:02.973Z,97947.00
2023-03-27T14:28:58.256Z,97948.06
2023-03-27T14:31:38.034Z,97948.61
2023-03-27T14:34:21.850Z,97944.16
2023-03-27T14:41:19.149Z,97940.02
2023-03-27T14:43:51.617Z,97939.71
2023-03-27T14:46:20.779Z,97933.55
2023-03-27T14:48:50.622Z,97932.36
2023-03-27T14:51:24.480Z,97934.39
2023-03-27T14:53:51.710Z,97934.52
2023-03-27T14:56:36.364Z,97935.89
2023-03-27T14:59:11.434Z,97938.61
2023-03-27T15:01:47.028Z,97940.27
2023-03-27T15:04:13.954Z,97940.64
2023-03-27T15:06:41.201Z,97942.70
2023-03-27T15:09:13.952Z,97940.53
2023-03-27T15:12:08.832Z,97940.23
2023-03-27T15:14:36.071Z,97940.72
2023-03-27T15:17:06.061Z,97936.98
2023-03-27T15:19:48.306Z,97934.63
2023-03-27T15:22:35.148Z,97932.64
2023-03-27T15:25:08.588Z,97933.89
2023-03-27T15:27:38.595Z,97932.69
2023-03-27T15:30:24.856Z,97930.44
2023-03-27T15:32:54.367Z,97927.52
2023-03-27T15:35:26.529Z,97928.27
2023-03-27T15:37:53.167Z,97924.65
2023-03-27T15:40:33.405Z,97924.70
2023-03-27T15:43:20.372Z,97923.23
2023-03-27T15:45:53.628Z,97924.65
2023-03-27T15:48:22.582Z,97922.25
2023-03-27T15:51:25.467Z,97923.59
2023-03-27T15:53:55.161Z,97919.71
2023-03-27T15:56:38.441Z,97919.27
2023-03-27T15:59:07.644Z,97919.54
2023-03-27T16:01:38.052Z,97918.39
2023-03-27T16:04:07.662Z,97916.15
2023-03-27T16:06:40.136Z,97915.45
2023-03-27T16:09:32.932Z,97914.48
2023-03-27T16:12:03.421Z,97916.35
2023-03-27T16:14:32.164Z,97915.11
2023-03-27T16:17:11.534Z,97912.63
2023-03-27T16:19:56.657Z,97912.09
2023-03-27T16:22:36.100Z,97912.05
2023-03-27T16:25:07.985Z,97909.23
2023-03-27T16:27:35.849Z,97912.65
2023-03-27T16:30:04.400Z,97910.75
2023-03-27T16:32:37.656Z,97912.96
2023-03-27T16:35:04.683Z,97912.95
2023-03-27T16:37:31.363Z,97914.98
2023-03-27T16:39:58.075Z,97912.83
2023-03-27T16:42:26.260Z,97911.92
2023-03-27T16:44:53.860Z,97913.91
2023-03-27T16:47:22.295Z,97918.59
2023-03-27T16:49:59.730Z,97921.42
2023-03-27T16:52:36.206Z,97923.35
2023-03-27T16:55:06.445Z,97925.45
2023-03-27T16:57:35.702Z,97925.59
2023-03-27T17:00:02.909Z,97923.21
2023-03-27T17:02:32.687Z,97923.90
2023-03-27T17:05:01.335Z,97924.70
2023-03-27T17:07:28.091Z,97927.17
2023-03-27T17:09:54.920Z,97925.27
2023-03-27T17:12:22.629Z,97927.77
2023-03-27T17:14:49.537Z,97930.34
2023-03-27T17:17:18.879Z,97928.07
2023-03-27T17:19:45.605Z,97928.38
2023-03-27T17:22:12.400Z,97928.47
2023-03-27T17:24:55.371Z,97927.23
2023-03-27T17:27:23.466Z,97927.95
2023-03-27T17:29:55.335Z,97925.10
2023-03-27T17:32:23.056Z,97928.08
2023-03-27T17:34:51.373Z,97928.10
2023-03-27T17:37:18.825Z,97929.52
2023-03-27T17:39:45.591Z,97938.61
2023-03-27T17:42:12.217Z,97940.00
2023-03-27T17:44:41.167Z,97933.63
2023-03-27T17:47:08.044Z,97931.02
2023-03-27T17:49:35.196Z,97934.91
2023-03-27T17:52:07.094Z,97944.46
2023-03-27T17:54:41.521Z,97938.80
2023-03-27T17:57:08.341Z,97941.70
2023-03-27T17:59:35.822Z,97931.02
2023-03-27T18:02:03.904Z,97929.79
2023-03-27T18:04:32.492Z,97932.16
2023-03-27T18:06:59.430Z,97941.88
2023-03-27T18:09:26.568Z,97936.81
2023-03-27T18:11:54.973Z,97934.52
2023-03-27T18:14:22.098Z,97932.95
2023-03-27T18:16:48.782Z,97924.32
2023-03-27T18:19:15.791Z,97932.56
2023-03-27T18:21:42.529Z,97925.44
2023-03-27T18:24:09.270Z,97911.77
2023-03-27T18:26:36.119Z,97917.87
2023-03-27T18:29:07.294Z,97913.84
2023-03-27T18:31:35.783Z,97913.15
2023-03-27T18:34:02.549Z,97912.65
2023-03-27T18:36:30.881Z,97913.80
2023-03-27T18:38:57.821Z,97913.11
2023-03-27T18:41:25.581Z,97920.41
2023-03-27T18:43:52.346Z,97923.63
2023-03-27T18:46:19.167Z,97929.53
2023-03-27T18:48:48.570Z,97935.60
2023-03-27T18:51:19.600Z,97933.87
2023-03-27T18:53:46.334Z,97951.98
2023-03-27T18:56:13.086Z,97955.23
2023-03-27T18:58:42.674Z,97939.00
2023-03-27T19:01:09.826Z,97940.99
2023-03-27T19:03:38.438Z,97931.04
2023-03-27T19:06:06.586Z,97912.73
2023-03-27T19:08:36.886Z,97908.14
2023-03-27T19:11:11.984Z,97907.89
2023-03-27T19:14:17.697Z,97901.60
2023-03-27T19:17:13.982Z,97894.20
2023-03-27T19:20:10.629Z,97889.70
2023-03-27T19:22:51.367Z,97887.05
2023-03-27T19:25:33.671Z,97886.31
2023-03-27T19:28:01.562Z,97884.02
2023-03-27T19:30:30.044Z,97881.35
2023-03-27T19:32:57.604Z,97877.98
2023-03-27T19:35:25.235Z,97873.95
2023-03-27T19:37:53.650Z,97871.48
2023-03-27T19:40:21.581Z,97873.83
2023-03-27T19:42:48.445Z,97869.41
2023-03-27T19:45:15.597Z,97871.14
2023-03-27T19:47:45.925Z,97870.41
2023-03-27T19:50:14.501Z,97869.34
2023-03-27T19:53:05.509Z,97865.14
2023-03-27T19:55:36.106Z,97859.02
2023-03-27T19:58:04.024Z,97855.83
2023-03-27T20:00:37.805Z,97860.43
2023-03-27T20:03:09.803Z,97861.13
2023-03-27T20:05:41.363Z,97859.65
2023-03-27T20:08:17.021Z,97858.90
2023-03-27T20:10:50.420Z,97852.13
2023-03-27T20:13:22.234Z,97849.34
2023-03-27T20:15:52.591Z,97848.77
2023-03-27T20:18:24.913Z,97846.56
2023-03-27T20:20:55.796Z,97848.16
2023-03-27T20:23:31.717Z,97844.50
2023-03-27T20:26:02.752Z,97846.71
2023-03-27T20:28:36.805Z,97841.15
2023-03-27T20:31:05.692Z,97837.82
2023-03-27T20:33:38.086Z,97835.84
2023-03-27T20:36:07.203Z,97831.46
2023-03-27T20:38:38.380Z,97832.61
2023-03-27T20:41:10.304Z,97832.91
2023-03-27T20:43:44.214Z,97835.04
2023-03-27T20:46:14.789Z,97836.52
2023-03-27T20:48:54.090Z,97835.54
2023-03-27T20:51:23.644Z,97829.33
2023-03-27T20:53:56.158Z,97830.70
2023-03-27T20:56:28.767Z,97824.55
2023-03-27T21:06:54.591Z,97814.23
2023-03-27T21:09:22.421Z,97814.11
2023-03-27T21:11:49.772Z,97809.84
2023-03-27T21:14:16.870Z,97805.54
2023-03-27T21:16:49.136Z,97798.21
2023-03-27T21:19:17.344Z,97800.84
2023-03-27T21:21:45.059Z,97798.40
2023-03-27T21:24:12.805Z,97798.02
2023-03-27T21:26:41.169Z,97795.36
2023-03-27T21:29:10.870Z,97802.38
2023-03-27T21:31:39.362Z,97800.02
2023-03-27T21:34:06.713Z,97798.98
2023-03-27T21:36:35.102Z,97791.83
2023-03-27T21:39:02.782Z,97792.11
2023-03-27T21:41:30.520Z,97793.11
2023-03-27T21:43:57.819Z,97788.97
2023-03-27T21:46:24.848Z,97785.38
2023-03-27T21:48:53.624Z,97783.25
2023-03-27T21:51:20.406Z,97781.80
2023-03-27T21:53:47.389Z,97778.86
2023-03-27T21:56:14.430Z,97775.21
2023-03-27T21:58:41.492Z,97776.86
2023-03-27T22:01:14.575Z,97775.59
2023-03-27T22:03:42.644Z,97775.20
2023-03-27T22:06:12.968Z,97775.23
2023-03-27T22:08:42.737Z,97776.70
2023-03-27T22:11:10.648Z,97773.54
2023-03-27T22:13:38.001Z,97771.75
2023-03-27T22:16:09.715Z,97771.98
2023-03-27T22:18:37.754Z,97773.23
2023-03-27T22:21:18.311Z,97776.23
2023-03-27T22:23:45.497Z,97768.01
2023-03-27T22:26:13.245Z,97765.89
2023-03-27T22:28:41.721Z,97769.05
2023-03-27T22:31:09.297Z,97765.95
2023-03-27T22:33:36.797Z,97762.48
2023-03-27T22:36:07.927Z,97765.96
2023-03-27T22:38:35.188Z,97769.44
2023-03-27T22:41:03.594Z,97764.52
2023-03-27T22:43:31.152Z,97763.55
2023-03-27T22:46:04.643Z,97763.55
2023-03-27T22:48:34.047Z,97759.00
2023-03-27T22:51:00.979Z,97751.29
2023-03-27T22:53:28.631Z,97749.83
2023-03-27T22:55:56.088Z,97750.11
2023-03-27T22:58:23.074Z,97751.19
2023-03-27T23:00:52.455Z,97750.21
2023-03-27T23:03:20.094Z,97750.75
2023-03-27T23:05:48.593Z,97752.13
2023-03-27T23:08:18.085Z,97749.66
2023-03-27T23:10:44.857Z,97749.25
2023-03-27T23:13:15.246Z,97744.95
2023-03-27T23:15:45.571Z,97742.92
2023-03-27T23:18:12.412Z,97743.42
2023-03-27T23:20:40.481Z,97738.30
2023-03-27T23:23:07.252Z,97738.26
2023-03-27T23:25:34.272Z,97733.75
2023-03-27T23:28:01.420Z,97737.64
2023-03-27T23:30:28.917Z,97729.58
2023-03-27T23:32:55.989Z,97731.69
2023-03-27T23:35:23.706Z,97734.13
2023-03-27T23:37:50.632Z,97735.34
2023-03-27T23:40:19.845Z,97734.43
2023-03-27T23:42:47.994Z,97729.59
2023-03-27T23:45:21.515Z,97726.38
2023-03-27T23:47:48.461Z,97725.16
2023-03-27T23:50:15.544Z,97717.98
2023-03-27T23:52:45.501Z,97725.05
2023-03-27T23:55:12.655Z,97720.63
2023-03-27T23:57:46.253Z,97716.30
